Terminal Aerodrome Forecast
Issued by NWS

Home | Current Version | Previous Version | Text Only | Print | Product List | Glossary On
Versions: 1 2 3 4 5 6 7 8 9 10 11 12 13 14 15 16
000
FTUS45 KABQ 041100 RRA
TAFLVS
TAF
KLVS 041144Z 0412/0512 05007KT P6SM VCSH BKN070
     FM041700 12012G20KT P6SM BKN060
     FM041900 14015G25KT P6SM -TSRA BKN050CB
     FM042200 16015KT 5SM SHRA OVC025
      TEMPO 0422/0502 3SM +TSRA BR OVC015CB
     FM050600 17012KT 2SM BR VCSH OVC005=

USA.gov is the U.S. government's official web portal to all federal, state and local government web resources and services.